createdAt,value
2022-10-21T00:00:17.366Z,94491.16
2022-10-21T00:02:44.142Z,94492.31
2022-10-21T00:05:11.054Z,94498.50
2022-10-21T00:07:38.019Z,94506.06
2022-10-21T00:10:06.074Z,94497.09
2022-10-21T00:12:34.001Z,94487.03
2022-10-21T00:15:00.699Z,94487.94
2022-10-21T00:17:27.316Z,94496.47
2022-10-21T00:19:53.926Z,94497.25
2022-10-21T00:22:20.636Z,94485.88
2022-10-21T00:24:47.370Z,94486.34
2022-10-21T00:27:14.022Z,94471.44
2022-10-21T00:29:40.647Z,94482.47
2022-10-21T00:32:07.297Z,94472.44
2022-10-21T00:34:34.075Z,94448.72
2022-10-21T00:37:00.986Z,94477.09
2022-10-21T00:39:27.604Z,94447.38
2022-10-21T00:41:54.248Z,94467.09
2022-10-21T00:44:20.903Z,94471.81
2022-10-21T00:47:00.478Z,94477.31
2022-10-21T00:49:32.667Z,94489.56
2022-10-21T00:52:00.563Z,94489.94
2022-10-21T00:54:27.482Z,94470.66
2022-10-21T00:56:56.943Z,94491.16
2022-10-21T00:59:25.798Z,94486.66
2022-10-21T01:01:52.835Z,94486.50
2022-10-21T01:04:25.231Z,94501.50
2022-10-21T01:06:52.080Z,94480.91
2022-10-21T01:09:19.278Z,94507.00
2022-10-21T01:11:47.098Z,94509.44
2022-10-21T01:14:32.217Z,94498.63
2022-10-21T01:17:26.537Z,94499.88
2022-10-21T01:20:22.175Z,94493.78
2022-10-21T01:23:27.329Z,94499.31
2022-10-21T01:25:59.895Z,94485.91
2022-10-21T01:28:53.769Z,94485.09
2022-10-21T01:32:02.148Z,94483.44
2022-10-21T01:34:42.230Z,94463.66
2022-10-21T01:37:23.005Z,94464.41
2022-10-21T01:39:54.176Z,94455.47
2022-10-21T01:42:28.744Z,94445.53
2022-10-21T01:45:01.442Z,94437.88
2022-10-21T01:47:37.162Z,94438.31
2022-10-21T01:50:12.740Z,94432.59
2022-10-21T01:52:41.771Z,94421.50
2022-10-21T01:55:12.796Z,94415.03
2022-10-21T01:57:42.151Z,94421.75
2022-10-21T02:00:09.830Z,94424.03
2022-10-21T02:02:42.595Z,94433.66
2022-10-21T02:05:24.316Z,94414.28
2022-10-21T02:07:50.959Z,94402.59
2022-10-21T02:10:19.198Z,94401.59
2022-10-21T02:12:48.210Z,94385.88
2022-10-21T02:15:16.141Z,94404.59
2022-10-21T02:17:46.740Z,94376.13
2022-10-21T02:20:14.995Z,94379.34
2022-10-21T02:22:42.991Z,94367.16
2022-10-21T02:25:16.818Z,94360.66
2022-10-21T02:27:43.762Z,94366.00
2022-10-21T02:30:10.771Z,94360.84
2022-10-21T02:32:41.177Z,94370.50
2022-10-21T02:35:29.332Z,94366.00
2022-10-21T02:38:07.460Z,94340.47
2022-10-21T02:40:42.180Z,94345.84
2022-10-21T02:43:29.759Z,94350.53
2022-10-21T02:46:00.944Z,94364.31
2022-10-21T02:48:27.811Z,94354.75
2022-10-21T02:50:54.521Z,94346.97
2022-10-21T02:53:21.277Z,94363.50
2022-10-21T02:55:47.894Z,94346.03
2022-10-21T02:58:14.549Z,94333.31
2022-10-21T03:00:41.401Z,94352.91
2022-10-21T03:03:08.072Z,94333.41
2022-10-21T03:05:34.794Z,94350.53
2022-10-21T03:08:01.453Z,94347.69
2022-10-21T03:10:28.139Z,94319.63
2022-10-21T03:12:54.778Z,94324.47
2022-10-21T03:15:21.449Z,94344.91
2022-10-21T03:17:48.409Z,94330.72
2022-10-21T03:20:15.486Z,94324.97
2022-10-21T03:22:42.106Z,94295.16
2022-10-21T03:25:09.183Z,94314.16
2022-10-21T03:27:35.862Z,94319.25
2022-10-21T03:30:03.983Z,94323.31
2022-10-21T03:32:30.590Z,94309.91
2022-10-21T03:34:57.318Z,94313.78
2022-10-21T03:37:23.921Z,94308.53
2022-10-21T03:39:50.543Z,94314.00
2022-10-21T03:42:17.287Z,94311.13
2022-10-21T03:44:43.927Z,94311.69
2022-10-21T03:47:10.607Z,94295.19
2022-10-21T03:49:37.261Z,94313.16
2022-10-21T03:52:03.927Z,94309.69
2022-10-21T03:54:30.564Z,94310.28
2022-10-21T03:56:57.222Z,94313.53
2022-10-21T03:59:23.856Z,94317.41
2022-10-21T04:01:50.611Z,94309.47
2022-10-21T04:04:17.416Z,94324.09
2022-10-21T04:06:44.213Z,94317.94
2022-10-21T04:09:10.959Z,94313.84
2022-10-21T04:11:37.852Z,94329.75
2022-10-21T04:14:04.806Z,94322.00
2022-10-21T04:16:33.481Z,94322.25
2022-10-21T04:19:01.019Z,94340.38
2022-10-21T04:21:28.740Z,94314.94
2022-10-21T04:23:55.404Z,94308.59
2022-10-21T04:26:22.066Z,94313.91
2022-10-21T04:28:48.706Z,94311.28
2022-10-21T04:31:15.370Z,94316.78
2022-10-21T04:33:42.009Z,94306.41
2022-10-21T04:36:08.665Z,94297.03
2022-10-21T04:38:35.308Z,94297.25
2022-10-21T04:41:03.584Z,94295.28
2022-10-21T04:43:30.477Z,94295.66
2022-10-21T04:45:57.191Z,94280.63
2022-10-21T04:48:24.296Z,94251.78
2022-10-21T04:50:52.463Z,94273.94
2022-10-21T04:53:19.473Z,94275.34
2022-10-21T04:55:46.203Z,94275.31
2022-10-21T04:58:12.870Z,94272.66
2022-10-21T05:00:39.675Z,94266.75
2022-10-21T05:03:06.361Z,94262.25
2022-10-21T05:05:33.199Z,94274.91
2022-10-21T05:08:00.692Z,94281.44
2022-10-21T05:10:30.418Z,94236.22
2022-10-21T05:12:57.861Z,94257.88
2022-10-21T05:15:25.377Z,94244.47
2022-10-21T05:17:52.653Z,94232.00
2022-10-21T05:20:20.818Z,94220.00
2022-10-21T05:22:49.522Z,94223.72
2022-10-21T05:25:16.346Z,94203.53
2022-10-21T05:27:43.073Z,94218.56
2022-10-21T05:30:10.313Z,94217.56
2022-10-21T05:32:37.340Z,94204.16
2022-10-21T05:35:04.323Z,94191.13
2022-10-21T05:37:30.998Z,94201.09
2022-10-21T05:39:57.669Z,94174.91
2022-10-21T05:42:24.374Z,94149.66
2022-10-21T05:44:51.038Z,94160.06
2022-10-21T05:47:17.680Z,94152.75
2022-10-21T05:49:44.354Z,94154.97
2022-10-21T05:52:10.966Z,94158.22
2022-10-21T05:54:37.646Z,94128.31
2022-10-21T05:57:04.267Z,94173.56
2022-10-21T05:59:30.970Z,94176.22
2022-10-21T06:01:57.723Z,94153.66
2022-10-21T06:04:24.446Z,94200.28
2022-10-21T06:06:51.116Z,94200.88
2022-10-21T06:09:17.860Z,94190.66
2022-10-21T06:11:44.577Z,94205.56
2022-10-21T06:14:11.225Z,94208.63
2022-10-21T06:16:37.875Z,94210.03
2022-10-21T06:19:04.525Z,94220.00
2022-10-21T06:21:31.237Z,94226.09
2022-10-21T06:23:57.870Z,94217.00
2022-10-21T06:26:24.720Z,94215.16
2022-10-21T06:28:51.374Z,94204.34
2022-10-21T06:31:21.602Z,94203.56
2022-10-21T06:33:48.441Z,94190.34
2022-10-21T06:36:15.599Z,94181.03
2022-10-21T06:38:42.392Z,94194.88
2022-10-21T06:41:13.315Z,94181.66
2022-10-21T06:43:41.235Z,94205.44
2022-10-21T06:46:10.646Z,94211.50
2022-10-21T06:48:37.275Z,94189.13
2022-10-21T06:51:07.223Z,94194.63
2022-10-21T06:53:38.108Z,94209.88
2022-10-21T06:56:14.629Z,94206.88
2022-10-21T06:58:48.080Z,94210.72
2022-10-21T07:01:35.288Z,94225.78
2022-10-21T07:04:12.422Z,94249.97
2022-10-21T07:06:39.167Z,94261.59
2022-10-21T07:09:07.299Z,94268.53
2022-10-21T07:11:34.013Z,94272.56
2022-10-21T07:14:01.444Z,94284.13
2022-10-21T07:16:33.390Z,94316.75
2022-10-21T07:19:00.344Z,94321.38
2022-10-21T07:21:29.231Z,94307.09
2022-10-21T07:23:59.356Z,94347.06
2022-10-21T07:26:27.989Z,94348.47
2022-10-21T07:28:55.720Z,94350.66
2022-10-21T07:31:22.688Z,94364.13
2022-10-21T07:33:49.454Z,94377.59
2022-10-21T07:36:27.203Z,94379.00
2022-10-21T07:38:55.105Z,94370.81
2022-10-21T07:41:31.051Z,94377.97
2022-10-21T07:43:58.426Z,94354.44
2022-10-21T07:46:25.503Z,94343.69
2022-10-21T07:48:52.829Z,94322.53
2022-10-21T07:51:25.730Z,94312.56
2022-10-21T07:53:56.891Z,94310.53
2022-10-21T07:56:28.065Z,94292.22
2022-10-21T07:58:55.242Z,94269.63
2022-10-21T08:01:22.511Z,94263.56
2022-10-21T08:03:50.273Z,94230.19
2022-10-21T08:06:17.735Z,94242.22
2022-10-21T08:08:45.471Z,94232.06
2022-10-21T08:11:12.493Z,94238.19
2022-10-21T08:13:41.655Z,94230.44
2022-10-21T08:16:09.366Z,94234.50
2022-10-21T08:18:36.025Z,94224.94
2022-10-21T08:21:04.134Z,94222.91
2022-10-21T08:23:31.207Z,94248.97
2022-10-21T08:26:00.825Z,94247.56
2022-10-21T08:28:29.278Z,94246.78
2022-10-21T08:31:13.236Z,94243.69
2022-10-21T08:33:40.117Z,94258.19
2022-10-21T08:36:07.930Z,94257.56
2022-10-21T08:38:35.077Z,94263.06
2022-10-21T08:41:02.171Z,94260.00
2022-10-21T08:43:31.761Z,94265.94
2022-10-21T08:46:02.654Z,94267.75
2022-10-21T08:48:37.865Z,94270.41
2022-10-21T08:51:06.186Z,94274.28
2022-10-21T08:53:39.306Z,94291.59
2022-10-21T08:56:10.453Z,94286.28
2022-10-21T08:58:37.123Z,94308.28
2022-10-21T09:01:24.440Z,94337.81
2022-10-21T09:04:15.505Z,94344.53
2022-10-21T09:06:55.183Z,94358.81
2022-10-21T09:09:30.194Z,94401.41
2022-10-21T09:12:18.533Z,94430.16
2022-10-21T09:17:27.253Z,94408.13
2022-10-21T09:20:13.607Z,94391.44
2022-10-21T09:23:18.618Z,94398.38
2022-10-21T09:25:57.899Z,94389.41
2022-10-21T09:28:26.582Z,94392.66
2022-10-21T09:30:54.416Z,94380.00
2022-10-21T09:33:27.719Z,94398.38
2022-10-21T09:36:12.545Z,94375.53
2022-10-21T09:39:08.419Z,94381.25
2022-10-21T09:41:44.752Z,94379.81
2022-10-21T09:44:20.834Z,94386.94
2022-10-21T09:46:51.854Z,94386.56
2022-10-21T09:50:01.649Z,94395.09
2022-10-21T09:52:20.298Z,94407.94
2022-10-21T09:54:48.336Z,94398.34
2022-10-21T09:57:24.186Z,94390.59
2022-10-21T09:59:59.207Z,94389.78
2022-10-21T10:02:33.958Z,94382.84
2022-10-21T10:05:00.832Z,94393.28
2022-10-21T10:07:37.059Z,94389.16
2022-10-21T10:10:33.624Z,94389.16
2022-10-21T10:13:00.885Z,94381.44
2022-10-21T10:15:37.556Z,94398.34
2022-10-21T10:18:04.776Z,94391.63
2022-10-21T10:20:31.596Z,94410.41
2022-10-21T10:23:01.143Z,94420.59
2022-10-21T10:25:33.615Z,94408.97
2022-10-21T10:28:16.106Z,94418.34
2022-10-21T10:30:42.798Z,94420.97
2022-10-21T10:33:16.808Z,94426.09
2022-10-21T10:35:50.496Z,94419.78
2022-10-21T10:38:33.240Z,94424.66
2022-10-21T10:41:09.552Z,94426.50
2022-10-21T10:43:51.975Z,94434.25
2022-10-21T10:46:34.601Z,94426.31
2022-10-21T10:49:13.290Z,94420.38
2022-10-21T10:51:42.572Z,94415.28
2022-10-21T10:54:15.174Z,94417.72
2022-10-21T10:57:34.174Z,94418.97
2022-10-21T11:00:23.719Z,94408.97
2022-10-21T11:03:14.528Z,94399.97
2022-10-21T11:05:51.459Z,94406.94
2022-10-21T11:08:35.022Z,94395.09
2022-10-21T11:11:18.561Z,94409.97
2022-10-21T11:13:45.276Z,94404.06
2022-10-21T11:17:00.176Z,94401.19
2022-10-21T11:19:44.937Z,94387.13
2022-10-21T11:22:24.760Z,94398.94
2022-10-21T11:24:56.906Z,94394.44
2022-10-21T11:27:43.150Z,94392.22
2022-10-21T11:30:20.004Z,94396.50
2022-10-21T11:33:04.837Z,94398.09
2022-10-21T11:36:17.734Z,94384.84
2022-10-21T11:39:36.957Z,94399.84
2022-10-21T11:42:22.540Z,94393.53
2022-10-21T11:45:38.755Z,94403.28
2022-10-21T11:48:19.786Z,94407.53
2022-10-21T11:51:03.822Z,94391.97
2022-10-21T11:54:07.759Z,94399.78
2022-10-21T11:57:14.786Z,94409.94
2022-10-21T12:00:13.441Z,94422.38
2022-10-21T12:03:37.038Z,94414.78
2022-10-21T12:06:16.974Z,94429.06
2022-10-21T12:08:58.741Z,94414.31
2022-10-21T12:11:42.791Z,94399.59
2022-10-21T12:14:15.724Z,94425.69
2022-10-21T12:16:42.528Z,94390.22
2022-10-21T12:19:12.661Z,94412.16
2022-10-21T12:21:44.351Z,94391.31
2022-10-21T12:24:10.993Z,94412.81
2022-10-21T12:26:51.804Z,94413.25
2022-10-21T12:29:29.104Z,94405.09
2022-10-21T12:32:10.741Z,94383.69
2022-10-21T12:34:37.919Z,94392.88
2022-10-21T12:37:47.433Z,94399.19
2022-10-21T12:40:20.434Z,94393.88
2022-10-21T12:42:48.684Z,94367.38
2022-10-21T12:45:35.623Z,94382.03
2022-10-21T12:48:08.114Z,94375.22
2022-10-21T12:50:35.205Z,94381.91
2022-10-21T12:53:07.973Z,94391.66
2022-10-21T12:55:41.610Z,94395.13
2022-10-21T12:58:30.807Z,94375.53
2022-10-21T13:00:59.183Z,94359.00
2022-10-21T13:03:55.426Z,94400.13
2022-10-21T13:06:57.321Z,94386.22
2022-10-21T13:09:51.337Z,94394.78
2022-10-21T13:12:24.107Z,94398.63
2022-10-21T13:14:54.546Z,94397.56
2022-10-21T13:17:21.180Z,94408.81
2022-10-21T13:19:54.612Z,94400.34
2022-10-21T13:22:34.613Z,94389.91
2022-10-21T13:25:16.677Z,94411.56
2022-10-21T13:27:53.870Z,94404.84
2022-10-21T13:30:49.188Z,94408.50
2022-10-21T13:33:22.934Z,94395.78
2022-10-21T13:35:53.751Z,94398.16
2022-10-21T13:38:31.367Z,94391.88
2022-10-21T13:41:06.477Z,94398.53
2022-10-21T13:43:46.632Z,94395.06
2022-10-21T13:46:20.364Z,94395.72
2022-10-21T13:48:48.837Z,94394.44
2022-10-21T13:51:27.642Z,94406.31
2022-10-21T13:54:10.967Z,94443.91
2022-10-21T13:56:38.602Z,94466.28
2022-10-21T13:59:15.063Z,94453.91
2022-10-21T14:01:49.667Z,94454.72
2022-10-21T14:04:21.467Z,94451.19
2022-10-21T14:07:08.317Z,94428.56
2022-10-21T14:09:47.817Z,94410.72
2022-10-21T14:12:29.746Z,94410.44
2022-10-21T14:15:04.122Z,94393.56
2022-10-21T14:17:31.965Z,94389.47
2022-10-21T14:20:08.545Z,94400.13
2022-10-21T14:22:35.305Z,94389.59
2022-10-21T14:25:02.834Z,94393.59
2022-10-21T14:27:34.705Z,94359.41
2022-10-21T14:30:06.339Z,94396.06
2022-10-21T14:32:33.871Z,94399.75
2022-10-21T14:35:21.897Z,94395.47
2022-10-21T14:38:02.480Z,94396.13
2022-10-21T14:40:41.600Z,94395.06
2022-10-21T14:43:21.678Z,94394.47
2022-10-21T14:45:52.326Z,94393.28
2022-10-21T14:48:32.598Z,94394.59
2022-10-21T14:51:17.676Z,94392.16
2022-10-21T14:53:56.658Z,94412.22
2022-10-21T14:56:35.178Z,94403.84
2022-10-21T14:59:33.655Z,94401.19
2022-10-21T15:02:02.047Z,94405.28
2022-10-21T15:04:53.064Z,94402.44
2022-10-21T15:07:45.925Z,94378.81
2022-10-21T15:10:18.590Z,94396.38
2022-10-21T15:12:51.700Z,94392.69
2022-10-21T15:15:39.960Z,94391.91
2022-10-21T15:18:30.762Z,94382.09
2022-10-21T15:21:08.546Z,94381.72
2022-10-21T15:23:40.372Z,94373.78
2022-10-21T15:26:16.642Z,94374.63
2022-10-21T15:28:43.412Z,94349.59
2022-10-21T15:31:21.968Z,94361.34
2022-10-21T15:33:50.448Z,94367.72
2022-10-21T15:36:19.248Z,94358.53
2022-10-21T15:38:47.875Z,94385.53
2022-10-21T15:41:25.646Z,94379.66
2022-10-21T15:44:16.072Z,94380.50
2022-10-21T15:46:46.356Z,94353.00
2022-10-21T15:49:19.567Z,94386.03
2022-10-21T15:51:48.088Z,94380.72
2022-10-21T15:54:16.669Z,94376.25
2022-10-21T15:56:46.073Z,94376.88
2022-10-21T15:59:26.573Z,94373.63
2022-10-21T16:01:54.719Z,94370.56
2022-10-21T16:04:22.584Z,94348.97
2022-10-21T16:06:50.915Z,94374.22
2022-10-21T16:09:25.697Z,94364.44
2022-10-21T16:12:00.143Z,94363.25
2022-10-21T16:14:30.045Z,94365.50
2022-10-21T16:17:00.896Z,94358.38
2022-10-21T16:19:29.131Z,94359.97
2022-10-21T16:21:56.436Z,94353.09
2022-10-21T16:24:23.308Z,94363.25
2022-10-21T16:26:50.562Z,94353.69
2022-10-21T16:29:24.415Z,94370.81
2022-10-21T16:31:52.054Z,94370.63
2022-10-21T16:34:19.797Z,94375.91
2022-10-21T16:36:46.654Z,94350.06
2022-10-21T16:39:17.457Z,94380.41
2022-10-21T16:41:44.487Z,94385.09
2022-10-21T16:44:11.274Z,94369.00
2022-10-21T16:46:42.474Z,94372.06
2022-10-21T16:49:15.053Z,94379.59
2022-10-21T16:51:46.231Z,94379.19
2022-10-21T16:54:15.829Z,94377.97
2022-10-21T16:56:42.598Z,94377.97
2022-10-21T16:59:09.373Z,94377.97
2022-10-21T17:01:36.402Z,94373.88
2022-10-21T17:04:03.732Z,94372.06
2022-10-21T17:06:30.774Z,94382.47
2022-10-21T17:08:58.073Z,94398.16
2022-10-21T17:11:43.099Z,94382.66
2022-10-21T17:14:18.245Z,94396.75
2022-10-21T17:16:45.603Z,94404.91
2022-10-21T17:19:14.302Z,94403.06
2022-10-21T17:21:41.268Z,94389.78
2022-10-21T17:24:08.006Z,94389.41
2022-10-21T17:26:34.838Z,94402.22
2022-10-21T17:29:01.565Z,94387.75
2022-10-21T17:31:30.692Z,94393.28
2022-10-21T17:34:07.356Z,94392.66
2022-10-21T17:36:35.528Z,94356.16
2022-10-21T17:39:03.680Z,94362.50
2022-10-21T17:41:30.443Z,94355.16
2022-10-21T17:43:57.511Z,94330.28
2022-10-21T17:46:25.599Z,94355.56
2022-10-21T17:48:56.218Z,94368.81
2022-10-21T17:51:25.121Z,94356.38
2022-10-21T17:53:53.905Z,94351.09
2022-10-21T17:56:21.303Z,94360.88
2022-10-21T17:58:54.436Z,94342.94
2022-10-21T18:01:23.948Z,94351.09
2022-10-21T18:03:52.251Z,94346.78
2022-10-21T18:06:19.709Z,94338.03
2022-10-21T18:08:46.881Z,94335.59
2022-10-21T18:11:17.624Z,94356.38
2022-10-21T18:13:46.261Z,94342.31
2022-10-21T18:16:19.940Z,94343.31
2022-10-21T18:18:47.393Z,94321.34
2022-10-21T18:21:18.252Z,94346.19
2022-10-21T18:23:49.249Z,94336.59
2022-10-21T18:26:20.576Z,94344.56
2022-10-21T18:29:01.307Z,94337.41
2022-10-21T18:31:32.607Z,94304.22
2022-10-21T18:34:04.091Z,94307.28
2022-10-21T18:36:31.340Z,94324.81
2022-10-21T18:38:59.952Z,94338.66
2022-10-21T18:41:27.523Z,94292.00
2022-10-21T18:44:01.393Z,94318.88
2022-10-21T18:46:31.948Z,94320.31
2022-10-21T18:48:59.389Z,94297.66
2022-10-21T18:51:26.230Z,94325.41
2022-10-21T18:53:53.542Z,94303.41
2022-10-21T18:56:23.354Z,94322.53
2022-10-21T18:58:51.398Z,94328.69
2022-10-21T19:01:20.148Z,94317.25
2022-10-21T19:03:47.371Z,94336.00
2022-10-21T19:06:29.017Z,94329.28
2022-10-21T19:08:56.033Z,94306.25
2022-10-21T19:11:22.927Z,94328.44
2022-10-21T19:13:49.693Z,94327.81
2022-10-21T19:16:16.431Z,94326.19
2022-10-21T19:18:43.306Z,94342.94
2022-10-21T19:21:10.135Z,94324.59
2022-10-21T19:23:36.895Z,94323.38
2022-10-21T19:26:07.923Z,94318.66
2022-10-21T19:28:36.398Z,94310.25
2022-10-21T19:31:06.209Z,94334.34
2022-10-21T19:33:33.724Z,94326.59
2022-10-21T19:36:05.566Z,94340.44
2022-10-21T19:38:49.761Z,94336.19
2022-10-21T19:41:20.909Z,94342.47
2022-10-21T19:43:48.742Z,94341.91
2022-10-21T19:46:24.952Z,94337.22
2022-10-21T19:48:55.004Z,94332.31
2022-10-21T19:51:24.636Z,94333.13
2022-10-21T19:53:54.332Z,94317.59
2022-10-21T19:56:25.698Z,94338.00
2022-10-21T19:58:54.202Z,94344.09
2022-10-21T20:01:25.094Z,94344.88
2022-10-21T20:03:53.592Z,94352.66
2022-10-21T20:06:29.402Z,94342.84
2022-10-21T20:09:08.624Z,94350.59
2022-10-21T20:11:36.702Z,94352.25
2022-10-21T20:14:04.428Z,94329.06
2022-10-21T20:16:38.059Z,94340.84
2022-10-21T20:19:06.839Z,94321.44
2022-10-21T20:21:36.017Z,94338.59
2022-10-21T20:24:03.086Z,94336.72
2022-10-21T20:26:29.902Z,94343.66
2022-10-21T20:29:00.677Z,94359.13
2022-10-21T20:31:28.382Z,94370.94
2022-10-21T20:33:55.453Z,94361.34
2022-10-21T20:36:26.327Z,94360.75
2022-10-21T20:38:55.226Z,94360.13
2022-10-21T20:41:33.570Z,94349.53
